Data for 10/07/2006

Time Sea-Level Adjusted Pressure Absolute Pressure Temperature Relative Humidity Dew Point   
(mb) (inHg) (mb) (inHg) (C) (F) (%) (C) (F)
00:05 1013 29.91 842 24.86 10.3 50.5 94 9.3 48.7
00:10 1013 29.91 842 24.86 10.4 50.7 94 9.4 48.9
00:15 1013 29.91 842 24.86 10.5 50.8 93 9.4 48.9
00:20 1013 29.91 842 24.86 10.4 50.7 93 9.3 48.8
00:25 1013 29.91 842 24.86 10.2 50.4 94 9.3 48.7
00:30 1013 29.91 842 24.86 10 49.9 95 9.2 48.6
00:35 1013 29.91 842 24.86 9.9 49.8 96 9.2 48.5
00:40 1013 29.91 842 24.86 9.8 49.6 96 9.1 48.4
00:45 1013 29.91 842 24.86 9.6 49.3 96 9 48.2
00:50 1013 29.91 842 24.86 9.6 49.2 96 9 48.2
00:55 1013 29.91 842 24.86 9.7 49.5 96 9.1 48.4
01:00 1013 29.91 842 24.86 9.9 49.9 96 9.3 48.7
01:05 1013 29.91 842 24.86 10 49.9 95 9.2 48.5
01:10 1012 29.88 842 24.86 10 50.1 94 9.2 48.5
01:15 1012 29.88 842 24.86 10 50 95 9.2 48.5
01:20 1012 29.88 841 24.83 10 49.9 94 9.1 48.3
01:25 1012 29.88 841 24.83 10 50 94 9.1 48.3
01:30 1012 29.88 841 24.83 10 49.9 94 9 48.2
01:35 1012 29.88 841 24.83 9.9 49.8 94 9 48.3
01:40 1012 29.88 841 24.83 9.8 49.7 94 9 48.1
01:45 1012 29.88 841 24.83 9.8 49.7 95 9 48.2
01:50 1012 29.88 841 24.83 9.9 49.8 94 9 48.2
01:55 1012 29.88 841 24.83 9.9 49.8 94 9 48.2
02:00 1012 29.88 841 24.83 9.9 49.8 94 8.9 48.1
02:05 1012 29.88 841 24.83 9.7 49.5 94 8.9 48
02:10 1012 29.88 841 24.83 9.8 49.6 95 8.9 48.1
02:15 1012 29.88 841 24.83 9.8 49.7 95 9 48.2
02:20 1012 29.88 841 24.83 9.8 49.7 93 8.8 47.8
02:25 1012 29.88 841 24.83 9.7 49.4 94 8.8 47.8
02:30 1012 29.88 841 24.83 9.6 49.2 94 8.6 47.5
02:35 1012 29.88 841 24.83 9.7 49.4 94 8.7 47.6
02:40 1012 29.88 841 24.83 9.7 49.4 94 8.8 47.8
02:45 1012 29.88 841 24.83 9.7 49.5 94 8.8 47.8
02:50 1012 29.88 841 24.83 9.7 49.4 94 8.8 47.8
02:55 1012 29.88 841 24.83 9.7 49.4 94 8.8 47.8
03:00 1012 29.88 841 24.83 9.6 49.3 94 8.8 47.8
03:05 1012 29.88 841 24.83 9.5 49.1 94 8.6 47.5
03:10 1012 29.88 841 24.83 9.5 49.1 95 8.7 47.6
03:15 1012 29.88 841 24.83 9.5 49 95 8.7 47.6
03:20 1012 29.88 841 24.83 9.3 48.8 95 8.6 47.5
03:25 1012 29.88 841 24.83 9.2 48.5 95 8.5 47.2
03:30 1012 29.88 841 24.83 9.1 48.4 95 8.4 47.1
03:35 1012 29.88 841 24.83 9 48.3 96 8.4 47
03:40 1012 29.88 841 24.83 9 48.2 96 8.3 47
03:45 1012 29.88 841 24.83 8.9 48.1 95 8.2 46.8
03:50 1012 29.88 841 24.83 9 48.1 96 8.3 46.9
03:55 1012 29.88 841 24.83 8.9 48 96 8.3 46.9
04:00 1012 29.88 841 24.83 8.9 47.9 96 8.2 46.7
04:05 1012 29.88 842 24.86 8.8 47.8 95 8 46.4
04:10 1012 29.88 842 24.86 8.7 47.6 94 7.8 46.1
04:15 1013 29.91 842 24.86 8.5 47.4 95 7.7 45.9
04:20 1013 29.91 842 24.86 8.4 47.2 94 7.6 45.6
04:25 1013 29.91 842 24.86 8.3 47 95 7.5 45.5
04:30 1013 29.91 842 24.86 8.3 46.9 95 7.5 45.5
04:35 1013 29.91 842 24.86 8.3 47 95 7.5 45.5
04:40 1013 29.91 842 24.86 8.3 47 95 7.5 45.5
04:45 1013 29.91 842 24.86 8.3 46.9 94 7.4 45.3
04:50 1013 29.91 842 24.86 8.3 46.9 94 7.3 45.2
04:55 1013 29.91 842 24.86 8.3 46.9 94 7.3 45.2
05:00 1013 29.91 843 24.89 8.3 46.9 94 7.3 45.2
05:05 1013 29.91 843 24.89 8.2 46.7 94 7.3 45.1
05:10 1013 29.91 843 24.89 8.1 46.6 94 7.2 45
05:15 1013 29.91 843 24.89 8.1 46.5 94 7.1 44.8
05:20 1013 29.91 843 24.89 8.1 46.5 93 7 44.6
05:25 1014 29.94 843 24.89 8 46.4 93 6.9 44.5
05:30 1014 29.94 843 24.89 7.9 46.3 93 6.9 44.5
05:35 1014 29.94 843 24.89 7.9 46.2 94 7 44.5
05:40 1014 29.94 843 24.89 7.9 46.1 94 6.9 44.4
05:45 1014 29.94 843 24.89 7.8 46 93 6.8 44.2
05:50 1014 29.94 843 24.89 7.8 46 93 6.6 43.9
05:55 1014 29.94 843 24.89 7.7 45.9 93 6.6 43.9
06:00 1014 29.94 843 24.89 7.6 45.8 93 6.5 43.8
06:05 1014 29.94 843 24.89 7.5 45.6 93 6.4 43.5
06:10 1014 29.94 843 24.89 7.5 45.5 92 6.3 43.3
06:15 1014 29.94 843 24.89 7.4 45.4 92 6.2 43.1
06:20 1014 29.94 843 24.89 7.4 45.2 92 6.2 43.1
06:25 1014 29.94 843 24.89 7.4 45.2 92 6.2 43.1
06:30 1014 29.94 843 24.89 7.3 45.2 92 6.2 43.1
06:35 1014 29.94 844 24.92 7.3 45.1 93 6.2 43.2
06:40 1014 29.94 844 24.92 7.2 45 93 6.2 43.1
06:45 1014 29.94 844 24.92 7.2 44.9 93 6.2 43.1
06:50 1014 29.94 844 24.92 7.2 44.9 94 6.3 43.3
06:55 1014 29.94 844 24.92 7.2 45 94 6.2 43.2
07:00 1014 29.94 844 24.92 7.2 45 94 6.3 43.3
07:05 1014 29.94 844 24.92 7.2 45 94 6.4 43.4
07:10 1014 29.94 844 24.92 7.2 45 95 6.5 43.7
07:15 1014 29.94 844 24.92 7.2 45 96 6.6 43.8
07:20 1015 29.97 844 24.92 7.2 45 95 6.6 43.8
07:25 1015 29.97 844 24.92 7.2 45 95 6.5 43.8
07:30 1015 29.97 844 24.92 7.3 45.2 95 6.7 44
07:35 1015 29.97 844 24.92 7.3 45.2 95 6.6 43.9
07:40 1015 29.97 844 24.92 7.4 45.2 95 6.7 44
07:45 1015 29.97 844 24.92 7.4 45.3 95 6.7 44
07:50 1015 29.97 844 24.92 7.3 45.2 95 6.6 43.9
07:55 1015 29.97 844 24.92 7.5 45.4 95 6.7 44.1
08:00 1015 29.97 844 24.92 7.5 45.4 94 6.6 43.9
08:05 1015 29.97 844 24.92 7.2 44.9 93 6.2 43.1
08:10 1015 29.97 844 24.92 7.1 44.8 93 6 42.8
08:15 1015 29.97 844 24.92 7 44.5 93 6 42.8
08:20 1015 29.97 845 24.95 7.1 44.8 94 6.1 43
08:25 1015 29.97 845 24.95 7 44.6 93 5.9 42.7
08:30 1015 29.97 845 24.95 6.8 44.2 92 5.5 41.9
08:35 1016 30 845 24.95 6.3 43.3 90 4.7 40.5
08:40 1016 30 845 24.95 6 42.8 91 4.6 40.3
08:45 1016 30 845 24.95 5.8 42.5 90 4.4 39.9
08:50 1016 30 845 24.95 5.8 42.4 90 4.3 39.7
08:55 1016 30 845 24.95 5.7 42.2 90 4.1 39.4
09:00 1016 30 845 24.95 5.6 42.1 89 4 39.2
09:05 1016 30 845 24.95 5.6 42 89 3.9 39
09:10 1016 30 845 24.95 5.6 42.1 90 4.1 39.3
09:15 1016 30 845 24.95 5.6 42.1 89 3.9 39.1
09:20 1016 30 845 24.95 5.6 42 89 3.9 38.9
09:25 1016 30 845 24.95 5.6 42.1 88 3.8 38.9
09:30 1016 30 845 24.95 5.7 42.2 89 3.9 39.1
09:35 1016 30 845 24.95 5.7 42.2 88 3.9 38.9
09:40 1016 30 845 24.95 5.7 42.3 89 4.1 39.4
09:45 1016 30 845 24.95 5.7 42.3 89 4 39.3
09:50 1016 30 845 24.95 5.8 42.4 89 4.1 39.3
09:55 1016 30 846 24.98 5.8 42.5 89 4.2 39.5
10:00 1016 30 846 24.98 5.9 42.7 90 4.5 40
10:05 1017 30.03 846 24.98 6 42.8 91 4.6 40.3
10:10 1017 30.03 846 24.98 6.1 43 90 4.5 40.2
10:15 1017 30.03 846 24.98 6.2 43.1 91 4.7 40.5
10:20 1017 30.03 846 24.98 6.3 43.3 90 4.8 40.6
10:25 1017 30.03 846 24.98 6.4 43.5 90 4.9 40.9
10:30 1017 30.03 846 24.98 6.3 43.3 91 5 41
10:35 1017 30.03 846 24.98 6.1 43 93 5 41
10:40 1017 30.03 846 24.98 6.1 43 93 5.1 41.2
10:45 1017 30.03 846 24.98 6.3 43.3 92 5.1 41.1
10:50 1017 30.03 846 24.98 6.3 43.4 92 5.2 41.3
10:55 1017 30.03 846 24.98 6.2 43.2 93 5.2 41.4
11:00 1017 30.03 847 25.01 6.4 43.6 93 5.4 41.7
11:05 1018 30.06 847 25.01 6.7 44.1 93 5.6 42.1
11:10 1018 30.06 847 25.01 6.9 44.4 93 5.9 42.6
11:15 1018 30.06 847 25.01 7.2 44.9 92 5.9 42.7
11:20 1018 30.06 847 25.01 7.2 44.9 92 6 42.8
11:25 1018 30.06 847 25.01 7.3 45.1 92 6.1 43
11:30 1018 30.06 847 25.01 7.4 45.4 91 6 42.8
11:35 1018 30.06 847 25.01 7.4 45.2 92 6.1 43
11:40 1018 30.06 847 25.01 7.4 45.2 92 6.1 43
11:45 1018 30.06 847 25.01 7.3 45.2 91 5.9 42.7
11:50 1018 30.06 847 25.01 7.3 45.1 92 6 42.8
11:55 1018 30.06 848 25.04 7.3 45.1 91 5.9 42.5
12:00 1018 30.06 848 25.04 7.2 45 90 5.7 42.3
12:05 1019 30.09 848 25.04 7.2 45 91 5.9 42.6
12:10 1019 30.09 848 25.04 7.3 45.1 91 6 42.7
12:15 1019 30.09 848 25.04 7.3 45.1 91 5.9 42.7
12:20 1019 30.09 848 25.04 7.1 44.9 92 5.9 42.6
12:25 1019 30.09 848 25.04 7 44.7 91 5.7 42.3
12:30 1019 30.09 848 25.04 7.1 44.7 92 5.8 42.5
12:35 1019 30.09 848 25.04 7 44.6 90 5.6 42
12:40 1019 30.09 848 25.04 6.9 44.4 92 5.7 42.2
12:45 1019 30.09 848 25.04 6.9 44.4 91 5.5 41.9
12:50 1019 30.09 849 25.07 6.7 44.1 90 5.3 41.5
12:55 1019 30.09 849 25.07 6.7 44.1 91 5.4 41.7
13:00 1020 30.12 849 25.07 6.8 44.2 91 5.4 41.8
13:05 1020 30.12 849 25.07 6.7 44.1 92 5.5 42
13:10 1020 30.12 849 25.07 6.7 44.1 91 5.4 41.6
13:15 1020 30.12 849 25.07 6.7 44 91 5.3 41.6
13:20 1020 30.12 849 25.07 6.6 43.9 92 5.4 41.7
13:25 1020 30.12 849 25.07 6.6 43.9 92 5.5 41.9
13:30 1020 30.12 849 25.07 6.7 44 92 5.4 41.8
13:35 1020 30.12 849 25.07 6.6 44 93 5.7 42.2
13:40 1020 30.12 849 25.07 6.8 44.2 92 5.6 42
13:45 1020 30.12 849 25.07 6.5 43.7 91 5.2 41.4
13:50 1020 30.12 849 25.07 6.3 43.4 93 5.3 41.5
13:55 1020 30.12 849 25.07 6.2 43.2 93 5.3 41.5
14:00 1020 30.12 850 25.1 6.4 43.5 93 5.4 41.6
14:05 1020 30.12 850 25.1 6.4 43.6 93 5.3 41.6
14:10 1020 30.12 850 25.1 6.5 43.7 93 5.4 41.8
14:15 1021 30.15 850 25.1 6.6 43.9 92 5.5 41.9
14:20 1021 30.15 850 25.1 6.8 44.2 92 5.6 42.1
14:25 1021 30.15 850 25.1 6.9 44.5 91 5.6 42
14:30 1021 30.15 850 25.1 7.1 44.9 88 5.3 41.5
14:35 1021 30.15 850 25.1 7.2 44.9 84 4.7 40.5
14:40 1021 30.15 850 25.1 7.2 44.9 84 4.7 40.4
14:45 1021 30.15 850 25.1 7.1 44.8 84 4.6 40.3
14:50 1021 30.15 850 25.1 6.7 44 85 4.4 39.9
14:55 1021 30.15 850 25.1 6.7 44.1 86 4.6 40.2
15:00 1021 30.15 850 25.1 6.9 44.4 86 4.7 40.5
15:05 1021 30.15 850 25.1 6.8 44.3 86 4.6 40.2
15:10 1021 30.15 850 25.1 6.7 44.1 86 4.6 40.3
15:15 1021 30.15 850 25.1 7.1 44.8 85 4.7 40.4
15:20 1021 30.15 850 25.1 7.2 45 84 4.7 40.5
15:25 1021 30.15 850 25.1 7.3 45.1 83 4.6 40.3
15:30 1021 30.15 851 25.13 7.6 45.7 79 4.2 39.6
15:35 1021 30.15 851 25.13 7.6 45.7 81 4.6 40.3
15:40 1021 30.15 851 25.13 7.3 45.2 80 4.2 39.5
15:45 1021 30.15 851 25.13 7.1 44.7 81 4.1 39.4
15:50 1021 30.15 851 25.13 7.1 44.8 82 4.3 39.8
15:55 1021 30.15 851 25.13 7.2 45 80 4.1 39.4
16:00 1021 30.15 851 25.13 7 44.7 79 3.7 38.7
16:05 1021 30.15 851 25.13 7.2 45 80 4 39.2
16:10 1022 30.18 851 25.13 7.3 45.2 80 4.2 39.5
16:15 1022 30.18 851 25.13 7.4 45.3 78 3.8 38.9
16:20 1022 30.18 851 25.13 7.3 45.1 77 3.5 38.3
16:25 1022 30.18 851 25.13 7.4 45.4 79 4 39.2
16:30 1022 30.18 851 25.13 7.4 45.2 78 3.7 38.7
16:35 1022 30.18 851 25.13 7.3 45.1 76 3.3 38
16:40 1022 30.18 851 25.13 7.3 45.1 75 3.2 37.7
16:45 1022 30.18 851 25.13 7.4 45.2 75 3.2 37.8
16:50 1022 30.18 851 25.13 7.7 45.8 74 3.3 37.9
16:55 1022 30.18 851 25.13 7.8 46.1 74 3.5 38.3
17:00 1022 30.18 851 25.13 7.9 46.3 73 3.5 38.2
17:05 1022 30.18 851 25.13 7.9 46.2 71 2.9 37.2
17:10 1022 30.18 851 25.13 8.6 47.4 69 3.1 37.7
17:15 1022 30.18 851 25.13 8.9 48 70 3.7 38.6
17:20 1022 30.18 851 25.13 8.9 48 69 3.5 38.3
17:25 1022 30.18 851 25.13 9.2 48.6 66 3.3 38
17:30 1022 30.18 851 25.13 9.5 49.1 66 3.6 38.4
17:35 1022 30.18 851 25.13 9.7 49.4 62 2.9 37.2
17:40 1022 30.18 851 25.13 9.7 49.5 63 3.1 37.5
17:45 1022 30.18 851 25.13 9.7 49.4 62 2.8 37.1
17:50 1022 30.18 851 25.13 9.3 48.7 64 2.9 37.3
17:55 1022 30.18 851 25.13 9 48.2 67 3.1 37.7
18:00 1022 30.18 851 25.13 8.4 47.1 70 3.2 37.7
18:05 1022 30.18 851 25.13 8.1 46.7 69 2.7 36.9
18:10 1022 30.18 851 25.13 7.9 46.3 70 2.8 37
18:15 1022 30.18 852 25.16 7.9 46.2 71 2.9 37.2
18:20 1022 30.18 852 25.16 7.8 46 70 2.7 36.8
18:25 1022 30.18 852 25.16 7.7 45.9 71 2.9 37.1
18:30 1022 30.18 852 25.16 7.7 45.9 71 2.8 37.1
18:35 1022 30.18 852 25.16 7.7 45.9 71 2.8 37
18:40 1023 30.21 852 25.16 7.8 46 71 2.9 37.2
18:45 1023 30.21 852 25.16 7.7 45.9 79 4.2 39.6
18:50 1023 30.21 852 25.16 7.5 45.5 74 3.1 37.6
18:55 1023 30.21 852 25.16 7.5 45.5 72 2.9 37.2
19:00 1023 30.21 852 25.16 7.6 45.6 72 2.9 37.2
19:05 1023 30.21 852 25.16 7.7 45.9 72 3 37.5
19:10 1023 30.21 852 25.16 7.8 46 74 3.4 38.1
19:15 1023 30.21 852 25.16 7.9 46.2 77 4.2 39.5
19:20 1023 30.21 852 25.16 7.9 46.2 78 4.3 39.7
19:25 1023 30.21 852 25.16 7.9 46.2 77 4.2 39.6
19:30 1023 30.21 853 25.19 7.8 46 78 4.3 39.7
19:35 1023 30.21 853 25.19 7.8 46.1 78 4.2 39.5
19:40 1023 30.21 853 25.19 7.7 45.9 78 4.1 39.4
19:45 1024 30.24 853 25.19 7.6 45.7 77 3.9 39
19:50 1024 30.24 853 25.19 7.5 45.5 76 3.6 38.6
19:55 1024 30.24 853 25.19 7.4 45.3 77 3.7 38.7
20:00 1024 30.24 853 25.19 7.2 45 78 3.6 38.5
20:05 1024 30.24 853 25.19 7 44.7 82 4.2 39.5
20:10 1024 30.24 853 25.19 7 44.6 83 4.3 39.7
20:15 1024 30.24 853 25.19 6.9 44.4 82 4 39.2
20:20 1024 30.24 853 25.19 6.9 44.5 84 4.3 39.8
20:25 1024 30.24 853 25.19 6.9 44.4 82 4.1 39.4
20:30 1024 30.24 853 25.19 6.9 44.4 83 4.2 39.6
20:35 1024 30.24 853 25.19 6.6 43.9 84 4.2 39.5
20:40 1024 30.24 853 25.19 6.2 43.1 85 3.8 38.8
20:45 1024 30.24 853 25.19 6 42.8 85 3.7 38.6
20:50 1024 30.24 853 25.19 5.8 42.4 84 3.3 37.9
20:55 1024 30.24 853 25.19 5.6 42 84 3.1 37.6
21:00 1024 30.24 853 25.19 5.4 41.8 84 2.9 37.3
21:05 1024 30.24 853 25.19 5.4 41.6 84 2.8 37
21:10 1024 30.24 853 25.19 5.4 41.7 84 2.8 37.1
21:15 1024 30.24 853 25.19 5.3 41.6 84 2.9 37.2
21:20 1024 30.24 853 25.19 5.3 41.5 84 2.8 37.1
21:25 1024 30.24 854 25.22 5.3 41.6 85 3 37.4
21:30 1024 30.24 854 25.22 5.4 41.6 85 3 37.4
21:35 1024 30.24 854 25.22 5.4 41.6 85 3 37.5
21:40 1024 30.24 854 25.22 5.5 41.8 85 3.1 37.5
21:45 1025 30.27 854 25.22 5.5 41.8 86 3.3 37.9
21:50 1025 30.27 854 25.22 5.5 42 86 3.4 38.1
21:55 1025 30.27 854 25.22 5.4 41.8 86 3.4 38.1
22:00 1025 30.27 854 25.22 5.5 41.9 86 3.3 38
22:05 1025 30.27 854 25.22 5.5 42 85 3.2 37.7
22:10 1025 30.27 854 25.22 5.6 42.1 86 3.4 38.2
22:15 1025 30.27 854 25.22 5.7 42.3 85 3.5 38.3
22:20 1025 30.27 854 25.22 5.7 42.2 86 3.5 38.2
22:25 1025 30.27 854 25.22 5.6 42 86 3.4 38.2
22:30 1025 30.27 854 25.22 5.6 42.2 86 3.5 38.3
22:35 1025 30.27 854 25.22 5.7 42.3 85 3.3 38
22:40 1025 30.27 854 25.22 5.8 42.4 85 3.4 38.1
22:45 1025 30.27 854 25.22 5.9 42.6 84 3.5 38.2
22:50 1025 30.27 854 25.22 6 42.8 85 3.6 38.5
22:55 1025 30.27 854 25.22 6 42.8 86 3.8 38.8
23:00 1025 30.27 854 25.22 5.9 42.6 86 3.8 38.9
23:05 1025 30.27 854 25.22 5.9 42.6 85 3.6 38.5
23:10 1025 30.27 854 25.22 5.9 42.6 84 3.5 38.2
23:15 1025 30.27 854 25.22 5.8 42.5 84 3.3 37.9
23:20 1025 30.27 855 25.25 5.8 42.4 84 3.3 37.9
23:25 1025 30.27 855 25.25 5.7 42.3 84 3.2 37.7
23:30 1025 30.27 855 25.25 5.6 42.1 85 3.2 37.8
23:35 1025 30.27 855 25.25 5.4 41.8 86 3.2 37.8
23:40 1025 30.27 855 25.25 5.3 41.5 86 3.1 37.6
23:45 1025 30.27 855 25.25 5.3 41.5 86 3.1 37.6
23:50 1025 30.27 855 25.25 5.2 41.4 85 2.9 37.2
23:55 1025 30.27 855 25.25 5.2 41.4 85 2.9 37.3
24:00 1025 30.27 855 25.25 5 41.1 86 2.9 37.2